AFP001 FGSL-FKKC
Flight info
| Callsign | AFP001 |
|---|---|
| Flight time | 0h 13m |
| Altitude | 11000 |
| Route | MBO DCT DLA/N0297F100 |
| Aircraft | C130/M-SDE2E3FGRY/H |
Departure
| Time | 2026-04-15 20:30 |
|---|---|
| Airport | Malabo International Airport (FGSL) |
Arrival
| Time | 2026-04-15 20:44 |
|---|---|
| Airport | Tiko Airport (FKKC) |
| Time | Latitude | Longitude | Altitude | Speed | Heading |
|---|---|---|---|---|---|
| 2026-04-15 20:25 | 3.76498 | 8.71737 | 53 ft | 0 kts | 221° |
| 2026-04-15 20:29 | 3.76454 | 8.71695 | 55 ft | 33 kts | 224° |
| 2026-04-15 20:29 | 3.76127 | 8.71401 | 58 ft | 92 kts | 222° |
| 2026-04-15 20:30 | 3.75525 | 8.70880 | 206 ft | 129 kts | 216° |
| 2026-04-15 20:30 | 3.74821 | 8.70236 | 583 ft | 143 kts | 226° |
| 2026-04-15 20:30 | 3.74102 | 8.69532 | 1112 ft | 147 kts | 215° |
| 2026-04-15 20:30 | 3.73034 | 8.69392 | 1424 ft | 176 kts | 161° |
| 2026-04-15 20:31 | 3.72057 | 8.70201 | 1902 ft | 195 kts | 120° |
| 2026-04-15 20:31 | 3.71778 | 8.71556 | 2504 ft | 208 kts | 81° |
| 2026-04-15 20:31 | 3.72300 | 8.72918 | 3241 ft | 210 kts | 62° |
| 2026-04-15 20:31 | 3.73054 | 8.74148 | 4122 ft | 205 kts | 56° |
| 2026-04-15 20:32 | 3.73842 | 8.75331 | 4969 ft | 203 kts | 56° |
| 2026-04-15 20:32 | 3.74585 | 8.76529 | 5788 ft | 202 kts | 59° |
| 2026-04-15 20:32 | 3.75298 | 8.77738 | 6585 ft | 201 kts | 60° |
| 2026-04-15 20:32 | 3.76000 | 8.78942 | 7383 ft | 199 kts | 60° |
| 2026-04-15 20:33 | 3.76688 | 8.80133 | 8198 ft | 196 kts | 60° |
| 2026-04-15 20:33 | 3.77367 | 8.81309 | 9027 ft | 194 kts | 61° |
| 2026-04-15 20:33 | 3.78076 | 8.82542 | 9220 ft | 227 kts | 61° |
| 2026-04-15 20:33 | 3.78935 | 8.84050 | 9110 ft | 267 kts | 61° |
| 2026-04-15 20:34 | 3.79906 | 8.85752 | 9119 ft | 294 kts | 61° |
| 2026-04-15 20:34 | 3.80969 | 8.87613 | 9004 ft | 319 kts | 60° |
| 2026-04-15 20:34 | 3.82099 | 8.89587 | 9022 ft | 334 kts | 60° |
| 2026-04-15 20:34 | 3.83268 | 8.91633 | 9039 ft | 338 kts | 61° |
| 2026-04-15 20:35 | 3.84436 | 8.93671 | 9029 ft | 337 kts | 60° |
| 2026-04-15 20:35 | 3.85600 | 8.95700 | 9030 ft | 336 kts | 60° |
| 2026-04-15 20:35 | 3.86746 | 8.97697 | 9034 ft | 335 kts | 60° |
| 2026-04-15 20:35 | 3.87907 | 8.99718 | 9030 ft | 334 kts | 60° |
| 2026-04-15 20:36 | 3.89051 | 9.01710 | 9026 ft | 334 kts | 60° |
| 2026-04-15 20:36 | 3.90210 | 9.03726 | 9009 ft | 334 kts | 60° |
| 2026-04-15 20:36 | 3.91373 | 9.05752 | 8599 ft | 332 kts | 60° |
| 2026-04-15 20:36 | 3.92515 | 9.07740 | 8180 ft | 327 kts | 60° |
| 2026-04-15 20:37 | 3.93644 | 9.09703 | 7755 ft | 327 kts | 60° |
| 2026-04-15 20:37 | 3.94800 | 9.11715 | 7360 ft | 338 kts | 60° |
| 2026-04-15 20:37 | 3.95989 | 9.13784 | 6979 ft | 345 kts | 60° |
| 2026-04-15 20:37 | 3.97197 | 9.15884 | 6603 ft | 350 kts | 60° |
| 2026-04-15 20:38 | 3.98363 | 9.17913 | 6247 ft | 352 kts | 60° |
| 2026-04-15 20:38 | 3.99584 | 9.20040 | 5859 ft | 354 kts | 60° |
| 2026-04-15 20:38 | 4.00791 | 9.22142 | 5473 ft | 344 kts | 60° |
| 2026-04-15 20:38 | 4.01964 | 9.24181 | 5079 ft | 331 kts | 59° |
| 2026-04-15 20:39 | 4.03099 | 9.26155 | 4590 ft | 323 kts | 59° |
| 2026-04-15 20:39 | 4.04228 | 9.28108 | 3646 ft | 330 kts | 59° |
| 2026-04-15 20:39 | 4.05096 | 9.30222 | 3175 ft | 323 kts | 76° |
| 2026-04-15 20:39 | 4.05307 | 9.32424 | 2648 ft | 316 kts | 92° |
| 2026-04-15 20:40 | 4.04994 | 9.34546 | 2432 ft | 300 kts | 102° |
| 2026-04-15 20:40 | 4.04308 | 9.36475 | 2205 ft | 283 kts | 120° |
| 2026-04-15 20:40 | 4.03028 | 9.37770 | 2270 ft | 251 kts | 154° |
| 2026-04-15 20:40 | 4.01389 | 9.38152 | 2039 ft | 219 kts | 181° |
| 2026-04-15 20:41 | 3.99985 | 9.37946 | 1512 ft | 206 kts | 202° |
| 2026-04-15 20:41 | 3.98610 | 9.37094 | 239 ft | 266 kts | 226° |
| 2026-04-15 20:41 | 3.97622 | 9.35523 | 238 ft | 276 kts | 251° |
| 2026-04-15 20:41 | 3.97462 | 9.33661 | 920 ft | 260 kts | 279° |
| 2026-04-15 20:42 | 3.98193 | 9.32096 | 1359 ft | 248 kts | 316° |
| 2026-04-15 20:42 | 3.99737 | 9.31563 | 1493 ft | 247 kts | 3° |
| 2026-04-15 20:42 | 4.01405 | 9.32078 | 1219 ft | 260 kts | 22° |
| 2026-04-15 20:42 | 4.03158 | 9.32764 | 873 ft | 281 kts | 18° |
| 2026-04-15 20:43 | 4.04986 | 9.33406 | 1008 ft | 259 kts | 17° |
| 2026-04-15 20:43 | 4.06430 | 9.33917 | 829 ft | 184 kts | 24° |
| 2026-04-15 20:43 | 4.07364 | 9.34575 | 541 ft | 147 kts | 38° |
| 2026-04-15 20:43 | 4.08117 | 9.35236 | 309 ft | 141 kts | 42° |
| 2026-04-15 20:44 | 4.08773 | 9.35856 | 160 ft | 120 kts | 40° |
| 2026-04-15 20:44 | 4.09144 | 9.36201 | 162 ft | 31 kts | 41° |
| 2026-04-15 20:44 | 4.09242 | 9.36298 | 162 ft | 16 kts | 49° |
| 2026-04-15 20:44 | 4.09300 | 9.36369 | 163 ft | 11 kts | 73° |
| 2026-04-15 20:45 | 4.09290 | 9.36423 | 167 ft | 4 kts | 125° |
| 2026-04-15 20:45 | 4.09283 | 9.36431 | 163 ft | 0 kts | 135° |